Portada
METAR-TAF:

METAR-TAF

Aeroports :

Al-Kharj, Aràbia Saudita

latitud: 24-03-19N, longitud: 047-33-49E, altitud: 503 m

Observació

L'informe es va fer fa 3 hores i 28 minuts, a les 22:00 UTC
Vent 5 kt del Est/Sud-Est
Temperatura 19°C
Humitat 52%
Pressió 1018 hPa
Visibilitat 10 km o més
sense núvols per sota de 1500 mi sense presència de cumulonimbus.

METAR: OEKJ 152200Z 12005KT CAVOK 19/09 Q1018

Hora: 04:28 (01:28 UTC)

Pronòstic

L'informe es va fer fa 2 hores i 28 minuts, a les 23:00 UTC
Pronòstic vàlid del 16 a les 00 UTC al 17 a les 06 UTC
Vent 8 kt del Sud
Visibilitat: 7000 m
Escasses núvols a una alçada de 4000 ft
Evolucionant progressivament
l' 16 a les 04 UTC al 16 a les 06 UTC
Vent 8 kt del Sud

TAF: OEKJ 152300Z 1600/1706 18008KT 7000 FEW040 BECMG 1604/1606 18008KT

Observacions i pronòstics meteorològics de més de 4000 aeroports (METAR i TAF).

Les estacions disponibles són els punts grocs i vermells al mapa.

Posi el ratolí al punt desitjat per veure el nom de l'estació.

Feu clic per veure les observacions i els pronòstics meteorològics.

Per canviar el mapa: feu clic els botons verds amb una creu de color negre per apropar; al botó verd amb un guió per allunyar la imatge; o en les fletxes verdes per a mapes adjacents.


METAR-TAF: